Time;durP1;ratioP1;P1;durP2;ratioP2;P2;SDS_P1;SDS_P2;PMS_P1;PMS_P2;Temp;Humidity;BMP_temperature;BMP_pressure;BME280_temperature;BME280_humidity;BME280_pressure;Samples;Min_cycle;Max_cycle;Signal;HPM_P1;HPM_P2
2022/03/06 00:02:09;;;;;;;23.08;17.05;;;1.60;99.90;;;;;;6209427;23;20123;-75
2022/03/06 00:04:34;;;;;;;22.90;16.38;;;1.70;99.90;;;;;;6211122;23;20441;-74
2022/03/06 00:07:00;;;;;;;25.20;17.13;;;1.70;99.90;;;;;;6209926;23;20352;-74
2022/03/06 00:09:26;;;;;;;22.70;17.10;;;1.60;99.90;;;;;;6183807;23;20021;-75
2022/03/06 00:11:53;;;;;;;23.15;16.77;;;1.70;99.90;;;;;;6183019;23;20013;-75
2022/03/06 00:14:19;;;;;;;22.65;16.35;;;1.60;99.90;;;;;;6209809;23;20020;-75
2022/03/06 00:16:45;;;;;;;22.98;16.60;;;1.60;99.90;;;;;;6209469;23;20023;-75
2022/03/06 00:19:10;;;;;;;21.42;16.60;;;1.60;99.90;;;;;;6184531;23;20012;-75
2022/03/06 00:21:36;;;;;;;23.00;17.27;;;1.60;99.90;;;;;;6210570;23;20024;-75
2022/03/06 00:24:03;;;;;;;23.25;17.05;;;1.60;99.90;;;;;;6209807;23;20401;-73
2022/03/06 00:26:29;;;;;;;23.67;18.17;;;1.60;99.90;;;;;;6185112;23;20096;-74
2022/03/06 00:28:57;;;;;;;24.08;17.67;;;1.50;99.90;;;;;;6208005;23;20470;-74
2022/03/06 00:31:23;;;;;;;24.92;18.88;;;1.50;99.90;;;;;;6183347;23;20210;-74
2022/03/06 00:33:49;;;;;;;23.42;16.83;;;1.50;99.90;;;;;;6208594;23;20567;-74
2022/03/06 00:36:15;;;;;;;26.88;18.55;;;1.50;99.90;;;;;;6208837;23;20067;-74
2022/03/06 00:38:41;;;;;;;22.38;17.42;;;1.50;99.90;;;;;;6209903;23;20024;-74
2022/03/06 00:41:07;;;;;;;26.40;17.65;;;1.50;99.90;;;;;;6209526;23;20397;-75
2022/03/06 00:43:35;;;;;;;23.90;17.70;;;1.50;99.90;;;;;;6182805;23;20052;-74
2022/03/06 00:46:01;;;;;;;24.08;17.73;;;1.50;99.90;;;;;;6208839;23;20341;-74
2022/03/06 00:48:26;;;;;;;24.15;18.13;;;1.40;99.90;;;;;;6183189;23;20116;-74
2022/03/06 00:50:52;;;;;;;24.42;18.35;;;1.40;99.90;;;;;;6208947;23;20017;-74
2022/03/06 00:53:18;;;;;;;24.80;18.48;;;1.40;99.90;;;;;;6181410;23;20633;-74
2022/03/06 00:55:43;;;;;;;26.27;17.67;;;1.40;99.90;;;;;;6209206;23;20107;-74
2022/03/06 00:58:09;;;;;;;25.70;17.08;;;1.40;99.90;;;;;;6182054;23;20043;-74
2022/03/06 01:00:40;;;;;;;23.75;17.95;;;1.40;99.90;;;;;;6182516;23;20097;-74
2022/03/06 01:03:08;;;;;;;22.17;17.10;;;1.30;99.90;;;;;;6208492;23;20083;-74
2022/03/06 01:05:35;;;;;;;21.95;18.05;;;1.30;99.90;;;;;;6179577;23;20020;-74
2022/03/06 01:08:02;;;;;;;23.70;18.58;;;1.30;99.90;;;;;;6182065;23;20096;-74
2022/03/06 01:10:27;;;;;;;25.05;18.23;;;1.30;99.90;;;;;;6182722;23;20024;-75
2022/03/06 01:12:53;;;;;;;24.67;18.92;;;1.20;99.90;;;;;;6180429;23;20020;-75
2022/03/06 01:15:19;;;;;;;26.63;19.50;;;1.10;99.90;;;;;;6208528;23;20070;-75
2022/03/06 01:17:44;;;;;;;22.27;18.10;;;1.10;99.90;;;;;;6182111;23;20464;-75
2022/03/06 01:20:11;;;;;;;23.25;18.38;;;1.10;99.90;;;;;;6181122;23;20017;-75
2022/03/06 01:22:37;;;;;;;24.67;18.98;;;1.00;99.90;;;;;;6207767;23;20025;-74
2022/03/06 01:25:03;;;;;;;29.23;20.20;;;1.00;99.90;;;;;;6179889;23;20559;-75
2022/03/06 01:27:29;;;;;;;24.92;19.65;;;1.00;99.90;;;;;;6182424;23;20020;-75
2022/03/06 01:29:54;;;;;;;26.17;19.60;;;1.00;99.90;;;;;;6181466;23;20032;-74
2022/03/06 01:32:20;;;;;;;26.35;19.75;;;1.10;99.90;;;;;;6182084;23;20039;-75
2022/03/06 01:34:45;;;;;;;28.27;20.52;;;1.10;99.90;;;;;;6208211;23;20021;-75
2022/03/06 01:37:11;;;;;;;27.52;19.33;;;1.10;99.90;;;;;;6180219;23;20017;-75
2022/03/06 01:39:37;;;;;;;25.00;20.23;;;1.10;99.90;;;;;;6205377;23;20081;-75
2022/03/06 01:42:03;;;;;;;26.27;20.70;;;1.10;99.90;;;;;;6208060;23;20036;-75
2022/03/06 01:44:28;;;;;;;25.73;19.70;;;1.10;99.90;;;;;;6164760;23;1042049;-74
2022/03/06 01:46:54;;;;;;;25.77;19.83;;;1.10;99.90;;;;;;6208394;23;20091;-75
2022/03/06 01:49:20;;;;;;;24.13;19.92;;;1.10;99.90;;;;;;6183526;23;20363;-75
2022/03/06 01:51:45;;;;;;;27.75;21.25;;;1.10;99.90;;;;;;6183937;23;20020;-75
2022/03/06 01:54:13;;;;;;;25.77;20.55;;;1.10;99.90;;;;;;6182031;23;20017;-74
2022/03/06 01:56:41;;;;;;;27.00;20.00;;;1.00;99.90;;;;;;6209813;23;20420;-74
2022/03/06 01:59:06;;;;;;;26.08;21.48;;;1.00;99.90;;;;;;6183023;23;20445;-74
2022/03/06 02:01:32;;;;;;;24.92;20.00;;;1.00;99.90;;;;;;6208995;23;20020;-75
2022/03/06 02:03:58;;;;;;;25.55;19.98;;;0.90;99.90;;;;;;6182362;23;20031;-75
2022/03/06 02:06:24;;;;;;;25.95;20.45;;;0.90;99.90;;;;;;6183375;23;20044;-75
2022/03/06 02:08:50;;;;;;;26.13;21.35;;;0.90;99.90;;;;;;6208807;23;20020;-75
2022/03/06 02:11:16;;;;;;;26.10;20.90;;;0.80;99.90;;;;;;6209336;23;20019;-75
2022/03/06 02:13:43;;;;;;;25.52;19.88;;;0.80;99.90;;;;;;6211012;23;20337;-74
2022/03/06 02:16:09;;;;;;;25.27;19.65;;;0.80;99.90;;;;;;6183254;23;20040;-75
2022/03/06 02:18:35;;;;;;;26.25;20.10;;;0.80;99.90;;;;;;6182935;23;20098;-75
2022/03/06 02:21:09;;;;;;;26.63;20.45;;;0.80;99.90;;;;;;6182861;23;20012;-75
2022/03/06 02:23:35;;;;;;;26.20;21.38;;;0.80;99.90;;;;;;6208944;23;20016;-74
2022/03/06 02:26:00;;;;;;;27.85;21.23;;;0.70;99.90;;;;;;6208707;23;20079;-75
2022/03/06 02:28:26;;;;;;;25.02;19.83;;;0.70;99.90;;;;;;6181494;23;20027;-75
2022/03/06 02:30:52;;;;;;;28.13;21.63;;;0.70;99.90;;;;;;6209005;23;20025;-75
2022/03/06 02:33:18;;;;;;;25.80;20.60;;;0.70;99.90;;;;;;6182781;23;20023;-74
2022/03/06 02:35:43;;;;;;;25.70;21.15;;;0.60;99.90;;;;;;6182431;23;20016;-75
2022/03/06 02:38:09;;;;;;;27.00;20.42;;;0.60;99.90;;;;;;6182410;23;20071;-75
2022/03/06 02:40:39;;;;;;;25.88;21.10;;;0.60;99.90;;;;;;6183312;23;20020;-75
2022/03/06 02:43:06;;;;;;;25.17;21.02;;;0.60;99.90;;;;;;6181020;23;20353;-75
2022/03/06 02:45:32;;;;;;;29.45;21.67;;;0.50;99.90;;;;;;6209486;23;20020;-75
2022/03/06 02:47:58;;;;;;;27.90;19.97;;;0.50;99.90;;;;;;6181908;23;20083;-75
2022/03/06 02:50:27;;;;;;;27.63;20.67;;;0.40;99.90;;;;;;6180490;23;20059;-75
2022/03/06 02:52:53;;;;;;;27.83;21.13;;;0.40;99.90;;;;;;6180013;23;20021;-75
2022/03/06 02:55:19;;;;;;;31.23;21.97;;;0.40;99.90;;;;;;6182619;23;20489;-75
2022/03/06 02:57:46;;;;;;;26.08;20.27;;;0.30;99.90;;;;;;6208384;23;20056;-75
2022/03/06 03:00:15;;;;;;;26.30;20.27;;;0.30;99.90;;;;;;6209989;23;20012;-75
2022/03/06 03:02:41;;;;;;;24.73;19.55;;;0.30;99.90;;;;;;6181927;23;20021;-75
2022/03/06 03:05:11;;;;;;;25.88;20.63;;;0.30;99.90;;;;;;6182103;23;20516;-75
2022/03/06 03:07:41;;;;;;;26.35;21.15;;;0.30;99.90;;;;;;6181724;23;20031;-74
2022/03/06 03:10:09;;;;;;;25.20;20.38;;;0.40;99.90;;;;;;6182936;23;20030;-75
2022/03/06 03:12:35;;;;;;;25.42;20.52;;;0.40;99.90;;;;;;6181157;23;20055;-74
2022/03/06 03:15:01;;;;;;;23.48;19.40;;;0.40;99.90;;;;;;6208940;23;20020;-75
2022/03/06 03:17:26;;;;;;;23.15;19.27;;;0.40;99.90;;;;;;6208146;23;20070;-74
2022/03/06 03:19:52;;;;;;;23.27;19.13;;;0.40;99.90;;;;;;6182208;23;20310;-75
2022/03/06 03:22:17;;;;;;;29.17;19.92;;;0.50;99.90;;;;;;6182497;23;20468;-75
2022/03/06 03:24:43;;;;;;;23.55;18.25;;;0.50;99.90;;;;;;6181799;23;20056;-75
2022/03/06 03:27:09;;;;;;;27.00;18.88;;;0.50;99.90;;;;;;6183300;23;20576;-75
2022/03/06 03:29:34;;;;;;;23.90;18.25;;;0.50;99.90;;;;;;6183368;23;20096;-75
2022/03/06 03:32:00;;;;;;;25.30;19.95;;;0.50;99.90;;;;;;6181556;23;20021;-75
2022/03/06 03:34:25;;;;;;;24.20;16.95;;;0.50;99.90;;;;;;6209551;23;20016;-75
2022/03/06 03:36:51;;;;;;;22.17;18.08;;;0.40;99.90;;;;;;6183108;23;20017;-75
2022/03/06 03:39:17;;;;;;;26.63;18.60;;;0.40;99.90;;;;;;6208329;23;20019;-74
2022/03/06 03:41:42;;;;;;;26.02;19.45;;;0.40;99.90;;;;;;6181765;23;20325;-74
2022/03/06 03:44:08;;;;;;;24.45;18.98;;;0.40;99.90;;;;;;6209613;23;20074;-75
2022/03/06 03:46:33;;;;;;;21.55;17.83;;;0.40;99.90;;;;;;6182650;23;20024;-75
2022/03/06 03:48:59;;;;;;;24.17;18.58;;;0.40;99.90;;;;;;6211743;23;20797;-75
2022/03/06 03:51:25;;;;;;;24.75;19.08;;;0.50;99.90;;;;;;6211481;23;20140;-75
2022/03/06 03:53:51;;;;;;;24.08;18.83;;;0.50;99.90;;;;;;6182383;23;20039;-74
2022/03/06 03:56:16;;;;;;;23.67;18.63;;;0.50;99.90;;;;;;6209620;23;20023;-75
2022/03/06 03:58:42;;;;;;;23.10;18.55;;;0.50;99.90;;;;;;6183388;23;20091;-75
2022/03/06 04:01:08;;;;;;;24.40;17.45;;;0.50;99.90;;;;;;6209101;23;20100;-75
2022/03/06 04:03:33;;;;;;;22.30;17.98;;;0.50;99.90;;;;;;6211312;23;20013;-73
2022/03/06 04:05:59;;;;;;;22.35;18.08;;;0.50;99.90;;;;;;6184884;23;20031;-74
2022/03/06 04:08:25;;;;;;;24.58;19.10;;;0.50;99.90;;;;;;6183137;23;20027;-75
2022/03/06 04:10:50;;;;;;;21.45;17.52;;;0.50;99.90;;;;;;6183327;23;20020;-75
2022/03/06 04:13:16;;;;;;;21.27;16.95;;;0.60;99.90;;;;;;6210875;23;20012;-75
2022/03/06 04:15:41;;;;;;;22.23;17.67;;;0.60;99.90;;;;;;6183200;23;20039;-74
2022/03/06 04:18:07;;;;;;;23.02;16.58;;;0.60;99.90;;;;;;6183415;23;20451;-75
2022/03/06 04:20:33;;;;;;;23.45;18.30;;;0.60;99.90;;;;;;6184118;23;20020;-74
2022/03/06 04:22:58;;;;;;;24.40;16.75;;;0.60;99.90;;;;;;6182490;23;20554;-75
2022/03/06 04:25:24;;;;;;;20.50;16.85;;;0.70;99.90;;;;;;6184272;23;20013;-74
2022/03/06 04:27:50;;;;;;;21.23;15.68;;;0.70;99.90;;;;;;6209369;23;20055;-75
2022/03/06 04:30:16;;;;;;;20.27;16.73;;;0.70;99.90;;;;;;6184069;23;20047;-75
2022/03/06 04:32:41;;;;;;;20.52;16.42;;;0.70;99.90;;;;;;6184037;23;20444;-75
2022/03/06 04:35:08;;;;;;;19.85;16.42;;;0.70;99.90;;;;;;6181571;23;20016;-75
2022/03/06 04:37:34;;;;;;;22.55;16.48;;;0.70;99.90;;;;;;6184459;23;20055;-75
2022/03/06 04:39:59;;;;;;;21.67;16.52;;;0.70;99.90;;;;;;6183126;23;20028;-74
2022/03/06 04:42:25;;;;;;;23.17;16.48;;;0.70;99.90;;;;;;6210096;23;20023;-75
2022/03/06 04:44:51;;;;;;;20.55;16.30;;;0.70;99.90;;;;;;6209637;23;20096;-75
2022/03/06 04:47:16;;;;;;;19.85;16.23;;;0.70;99.90;;;;;;6184195;23;20456;-75
2022/03/06 04:49:42;;;;;;;20.52;15.77;;;0.70;99.90;;;;;;6157735;23;20127;-75
2022/03/06 04:52:08;;;;;;;22.58;15.38;;;0.70;99.90;;;;;;6183856;23;20024;-74
2022/03/06 04:54:34;;;;;;;20.13;15.77;;;0.70;99.90;;;;;;6210798;23;20048;-74
2022/03/06 04:57:00;;;;;;;20.42;15.70;;;0.70;99.90;;;;;;6182216;23;20017;-75
2022/03/06 04:59:27;;;;;;;21.30;14.40;;;0.70;99.90;;;;;;6209651;23;20084;-75
2022/03/06 05:01:53;;;;;;;19.90;15.27;;;0.70;99.90;;;;;;6182807;23;20731;-75
2022/03/06 05:04:19;;;;;;;17.83;14.75;;;0.60;99.90;;;;;;6209276;23;20364;-75
2022/03/06 05:06:44;;;;;;;21.02;15.20;;;0.60;99.90;;;;;;6182702;23;20090;-75
2022/03/06 05:09:10;;;;;;;22.67;15.38;;;0.60;99.90;;;;;;6209609;23;20070;-75
2022/03/06 05:11:36;;;;;;;19.65;14.80;;;0.60;99.90;;;;;;6207960;23;20020;-75
2022/03/06 05:14:01;;;;;;;21.70;14.98;;;0.60;99.90;;;;;;6209291;23;20055;-75
2022/03/06 05:16:27;;;;;;;18.42;14.07;;;0.60;99.90;;;;;;6183360;23;20032;-74
2022/03/06 05:18:52;;;;;;;18.23;14.38;;;0.50;99.90;;;;;;6181807;23;20027;-74
2022/03/06 05:21:18;;;;;;;17.65;13.52;;;0.50;99.90;;;;;;6210122;23;20399;-75
2022/03/06 05:23:44;;;;;;;17.63;13.65;;;0.50;99.90;;;;;;6209448;23;20020;-75
2022/03/06 05:26:09;;;;;;;18.88;14.57;;;0.50;99.90;;;;;;6209179;23;20022;-75
2022/03/06 05:28:36;;;;;;;17.02;14.73;;;0.50;99.90;;;;;;6183514;23;20433;-75
2022/03/06 05:31:01;;;;;;;19.08;16.00;;;0.50;99.90;;;;;;6182580;23;20016;-75
2022/03/06 05:33:27;;;;;;;18.92;14.35;;;0.50;99.90;;;;;;6182411;23;20085;-74
2022/03/06 05:35:52;;;;;;;17.85;14.00;;;0.50;99.90;;;;;;6182927;23;20488;-75
2022/03/06 05:38:18;;;;;;;17.10;13.73;;;0.50;99.90;;;;;;6182419;23;20399;-74
2022/03/06 05:40:44;;;;;;;18.85;14.00;;;0.50;99.90;;;;;;6209151;23;20024;-74
2022/03/06 05:43:09;;;;;;;20.88;14.82;;;0.50;99.90;;;;;;6209105;23;20016;-74
2022/03/06 05:45:35;;;;;;;19.00;14.10;;;0.50;99.90;;;;;;6182527;23;20017;-74
2022/03/06 05:48:01;;;;;;;18.50;14.45;;;0.40;99.90;;;;;;6209141;23;20022;-74
2022/03/06 05:50:26;;;;;;;18.45;14.05;;;0.40;99.90;;;;;;6210041;23;20554;-74
2022/03/06 05:52:52;;;;;;;19.55;13.77;;;0.40;99.90;;;;;;6208748;23;20020;-73
2022/03/06 05:55:18;;;;;;;19.48;13.85;;;0.40;99.90;;;;;;6211953;23;20020;-74
2022/03/06 05:57:46;;;;;;;19.40;13.43;;;0.40;99.90;;;;;;6209583;23;20660;-74
2022/03/06 06:00:16;;;;;;;18.30;13.07;;;0.30;99.90;;;;;;6181839;23;20017;-75
2022/03/06 06:02:42;;;;;;;17.38;13.20;;;0.40;99.90;;;;;;6209743;23;20075;-74
2022/03/06 06:05:08;;;;;;;15.23;12.60;;;0.40;99.90;;;;;;6182460;23;20516;-74
2022/03/06 06:07:35;;;;;;;17.95;12.90;;;0.40;99.90;;;;;;6182360;23;20345;-75
2022/03/06 06:10:01;;;;;;;16.00;12.65;;;0.40;99.90;;;;;;6209062;23;20012;-74
2022/03/06 06:12:27;;;;;;;18.17;12.88;;;0.40;99.90;;;;;;6183042;23;20025;-74
2022/03/06 06:14:53;;;;;;;15.32;12.15;;;0.40;99.90;;;;;;6208370;23;20023;-75
2022/03/06 06:17:19;;;;;;;18.38;12.45;;;0.40;99.90;;;;;;6183231;23;20437;-74
2022/03/06 06:19:45;;;;;;;19.65;12.38;;;0.40;99.90;;;;;;6182645;23;20020;-74
2022/03/06 06:22:10;;;;;;;26.13;17.92;;;0.30;99.90;;;;;;6208744;23;20076;-74
2022/03/06 06:24:36;;;;;;;30.48;21.17;;;0.30;99.90;;;;;;6182874;23;20344;-75
2022/03/06 06:27:02;;;;;;;27.77;18.92;;;0.30;99.90;;;;;;6208824;23;20017;-75
2022/03/06 06:29:28;;;;;;;22.95;17.92;;;0.30;99.90;;;;;;6181120;23;20703;-74
2022/03/06 06:31:53;;;;;;;18.33;15.68;;;0.30;99.90;;;;;;6182230;23;20471;-74
2022/03/06 06:34:20;;;;;;;21.77;16.20;;;0.40;99.90;;;;;;6183145;23;20043;-75
2022/03/06 06:36:46;;;;;;;19.73;16.40;;;0.40;99.90;;;;;;6182444;23;20019;-75
2022/03/06 06:39:13;;;;;;;17.88;15.55;;;0.40;99.90;;;;;;6183086;23;20046;-75
2022/03/06 06:41:40;;;;;;;19.23;14.77;;;0.40;99.90;;;;;;6181708;23;20017;-75
2022/03/06 06:44:06;;;;;;;17.40;14.10;;;0.40;99.90;;;;;;6182521;23;20027;-75
2022/03/06 06:46:32;;;;;;;15.70;12.32;;;0.40;99.90;;;;;;6209769;23;20589;-74
2022/03/06 06:48:58;;;;;;;19.35;12.43;;;0.40;99.90;;;;;;6208530;23;20062;-75
2022/03/06 06:51:24;;;;;;;19.60;13.90;;;0.40;99.90;;;;;;6210024;23;20121;-75
2022/03/06 06:53:49;;;;;;;30.27;19.77;;;0.40;99.90;;;;;;6208836;23;20020;-75
2022/03/06 06:56:15;;;;;;;33.13;18.60;;;0.40;99.90;;;;;;6182094;23;20008;-75
2022/03/06 06:58:41;;;;;;;21.92;13.45;;;0.40;99.90;;;;;;6209754;23;20039;-75
2022/03/06 07:01:07;;;;;;;15.00;11.05;;;0.50;99.90;;;;;;6208902;23;20028;-75
2022/03/06 07:03:32;;;;;;;15.05;9.88;;;0.50;99.90;;;;;;6182051;23;20016;-75
2022/03/06 07:05:58;;;;;;;11.75;8.10;;;0.50;99.90;;;;;;6182223;23;20016;-75
2022/03/06 07:08:25;;;;;;;11.02;7.68;;;0.60;99.90;;;;;;6209475;23;20032;-75
2022/03/06 07:10:50;;;;;;;11.57;8.02;;;0.60;99.90;;;;;;6181080;23;20021;-75
2022/03/06 07:13:17;;;;;;;12.00;7.68;;;0.70;99.90;;;;;;6209788;23;20329;-74
2022/03/06 07:15:42;;;;;;;10.43;7.45;;;0.70;99.90;;;;;;6182477;23;20013;-75
2022/03/06 07:18:08;;;;;;;12.73;7.78;;;0.70;99.90;;;;;;6208780;23;20021;-74
2022/03/06 07:20:34;;;;;;;10.55;7.85;;;0.80;99.90;;;;;;6182628;23;20021;-74
2022/03/06 07:22:59;;;;;;;11.40;7.70;;;0.80;99.90;;;;;;6183281;23;20067;-74
2022/03/06 07:25:25;;;;;;;10.52;7.43;;;0.90;99.90;;;;;;6210823;23;20025;-74
2022/03/06 07:27:51;;;;;;;11.07;6.75;;;0.90;99.90;;;;;;6183667;23;20020;-75
2022/03/06 07:30:17;;;;;;;9.60;6.38;;;1.00;99.90;;;;;;6184714;23;20021;-74
2022/03/06 07:32:44;;;;;;;10.00;6.70;;;1.00;99.90;;;;;;6183629;23;20017;-75
2022/03/06 07:35:11;;;;;;;13.93;6.43;;;1.00;99.90;;;;;;6184604;23;20016;-74
2022/03/06 07:37:37;;;;;;;11.07;6.33;;;1.10;99.90;;;;;;6210917;23;20047;-75
2022/03/06 07:40:03;;;;;;;12.45;6.43;;;1.10;99.90;;;;;;6210426;23;20086;-75
2022/03/06 07:42:28;;;;;;;9.55;6.30;;;1.20;99.90;;;;;;6184805;23;20013;-74
2022/03/06 07:44:54;;;;;;;11.50;6.32;;;1.20;99.90;;;;;;6184894;23;20104;-74
2022/03/06 07:47:19;;;;;;;12.52;6.22;;;1.20;99.90;;;;;;6184412;23;20568;-75
2022/03/06 07:49:45;;;;;;;7.97;5.38;;;1.30;99.90;;;;;;6183749;23;20016;-75
2022/03/06 07:52:11;;;;;;;8.48;5.55;;;1.30;99.90;;;;;;6210016;23;20096;-75
2022/03/06 07:54:36;;;;;;;9.68;5.90;;;1.30;99.90;;;;;;6211480;23;20345;-75
2022/03/06 07:57:02;;;;;;;9.32;5.18;;;1.30;99.90;;;;;;6183716;23;20020;-75
2022/03/06 07:59:28;;;;;;;6.93;4.60;;;1.40;99.90;;;;;;6183256;23;20020;-74
2022/03/06 08:01:54;;;;;;;7.57;5.05;;;1.40;99.90;;;;;;6183354;23;20021;-75
2022/03/06 08:04:20;;;;;;;9.05;5.00;;;1.40;99.90;;;;;;6184299;23;20465;-75
2022/03/06 08:06:49;;;;;;;8.43;4.78;;;1.50;99.90;;;;;;6182964;23;20027;-76
2022/03/06 08:09:15;;;;;;;10.48;4.90;;;1.50;99.90;;;;;;6184509;23;20016;-77
2022/03/06 08:11:41;;;;;;;9.07;5.15;;;1.50;99.90;;;;;;6184231;23;20072;-75
2022/03/06 08:14:07;;;;;;;8.75;5.05;;;1.60;99.90;;;;;;6208878;23;20024;-83
2022/03/06 08:16:33;;;;;;;8.55;5.28;;;1.60;99.90;;;;;;6183379;23;20070;-81
2022/03/06 08:18:59;;;;;;;8.85;4.63;;;1.70;99.90;;;;;;6157356;23;20067;-80
2022/03/06 08:21:24;;;;;;;8.45;4.85;;;1.70;99.90;;;;;;6208834;23;20020;-81
2022/03/06 08:23:51;;;;;;;7.85;4.97;;;1.70;99.90;;;;;;6184312;23;20028;-73
2022/03/06 08:26:17;;;;;;;7.33;4.97;;;1.70;99.90;;;;;;6212238;23;20008;-75
2022/03/06 08:28:43;;;;;;;7.72;5.00;;;1.80;99.90;;;;;;6210878;23;20028;-74
2022/03/06 08:31:09;;;;;;;10.65;5.30;;;1.90;99.90;;;;;;6184540;23;20020;-75
2022/03/06 08:33:34;;;;;;;8.48;5.65;;;1.90;99.90;;;;;;6185681;23;20024;-74
2022/03/06 08:36:00;;;;;;;8.55;5.57;;;2.00;99.90;;;;;;6184099;23;20016;-74
2022/03/06 08:38:26;;;;;;;6.70;5.43;;;2.00;99.90;;;;;;6185917;23;20019;-75
2022/03/06 08:40:51;;;;;;;7.63;5.35;;;2.00;99.90;;;;;;6211849;23;20372;-78
2022/03/06 08:43:17;;;;;;;8.93;5.10;;;2.00;99.90;;;;;;6210510;23;20447;-78
2022/03/06 08:45:42;;;;;;;9.15;5.43;;;2.10;99.90;;;;;;6185269;23;20021;-75
2022/03/06 08:48:08;;;;;;;8.50;5.10;;;2.10;99.90;;;;;;6210608;23;20017;-76
2022/03/06 08:50:34;;;;;;;8.90;4.80;;;2.20;99.90;;;;;;6210746;23;20115;-75
2022/03/06 08:52:59;;;;;;;9.98;5.10;;;2.20;99.90;;;;;;6184314;23;20051;-74
2022/03/06 08:55:25;;;;;;;8.13;5.00;;;2.30;99.90;;;;;;6211214;23;20023;-75
2022/03/06 08:57:51;;;;;;;7.35;5.00;;;2.30;99.90;;;;;;6184659;23;20107;-76
2022/03/06 09:00:16;;;;;;;9.20;4.75;;;2.40;99.90;;;;;;6184945;23;20023;-77
2022/03/06 09:02:42;;;;;;;7.57;4.72;;;2.40;99.90;;;;;;6209035;23;20012;-74
2022/03/06 09:05:08;;;;;;;7.25;4.97;;;2.50;99.90;;;;;;6206519;23;20535;-74
2022/03/06 09:07:34;;;;;;;9.55;4.85;;;2.50;99.90;;;;;;6182624;23;20020;-74
2022/03/06 09:10:00;;;;;;;9.23;4.82;;;2.60;99.90;;;;;;6182587;23;20016;-72
2022/03/06 09:12:26;;;;;;;8.32;4.68;;;2.60;99.90;;;;;;6184717;23;20017;-72
2022/03/06 09:14:53;;;;;;;6.60;4.43;;;2.70;99.90;;;;;;6210575;23;20017;-72
2022/03/06 09:17:19;;;;;;;7.17;5.03;;;2.70;99.90;;;;;;6210376;23;20016;-72
2022/03/06 09:19:45;;;;;;;7.80;5.05;;;2.80;99.90;;;;;;6158582;23;20914;-72
2022/03/06 09:22:10;;;;;;;7.55;4.70;;;2.80;99.90;;;;;;6184071;23;20052;-72
2022/03/06 09:24:36;;;;;;;7.68;4.82;;;2.90;99.90;;;;;;6209810;23;20044;-72
2022/03/06 09:27:02;;;;;;;7.20;4.97;;;2.90;99.90;;;;;;6210346;23;20437;-72
2022/03/06 09:29:27;;;;;;;9.23;5.22;;;3.00;99.90;;;;;;6184070;23;20021;-72
2022/03/06 09:31:54;;;;;;;7.68;5.22;;;3.00;99.90;;;;;;6210174;23;20052;-72
2022/03/06 09:34:19;;;;;;;6.88;4.40;;;3.10;99.90;;;;;;6212218;23;20020;-71
2022/03/06 09:36:46;;;;;;;7.38;4.78;;;3.10;99.90;;;;;;6183849;23;20024;-72
2022/03/06 09:39:13;;;;;;;7.47;4.97;;;3.20;99.90;;;;;;6209613;23;20009;-71
2022/03/06 09:41:39;;;;;;;8.13;4.93;;;3.30;99.90;;;;;;6211519;23;20020;-72
2022/03/06 09:44:08;;;;;;;10.13;6.25;;;3.30;99.80;;;;;;6182621;23;20028;-72
2022/03/06 09:46:35;;;;;;;7.45;4.70;;;3.40;98.60;;;;;;6209877;23;20027;-72
2022/03/06 09:49:03;;;;;;;7.30;4.60;;;3.50;96.40;;;;;;6182643;23;20017;-71
2022/03/06 09:51:38;;;;;;;7.15;4.90;;;3.50;94.80;;;;;;6182450;23;20016;-72
2022/03/06 09:54:05;;;;;;;8.15;5.22;;;3.50;93.70;;;;;;6210306;23;20024;-72
2022/03/06 09:56:31;;;;;;;7.23;5.37;;;3.50;93.20;;;;;;6184357;23;20020;-71
2022/03/06 09:58:56;;;;;;;7.93;5.70;;;3.60;94.30;;;;;;6208239;23;20699;-71
2022/03/06 10:01:22;;;;;;;7.15;5.07;;;3.70;93.40;;;;;;6184087;23;20099;-71
2022/03/06 10:03:48;;;;;;;6.95;5.40;;;3.70;91.40;;;;;;6208539;23;20023;-71
2022/03/06 10:06:13;;;;;;;8.05;5.20;;;3.70;90.70;;;;;;6183368;23;20023;-71
2022/03/06 10:08:39;;;;;;;9.75;5.68;;;3.70;91.70;;;;;;6210012;23;20016;-71
2022/03/06 10:11:08;;;;;;;7.93;5.25;;;3.80;89.40;;;;;;6210151;23;20012;-71
2022/03/06 10:13:35;;;;;;;12.35;6.13;;;3.80;88.60;;;;;;6209361;23;20111;-71
2022/03/06 10:16:12;;;;;;;7.30;5.60;;;3.80;88.90;;;;;;6209831;23;20028;-71
2022/03/06 10:18:50;;;;;;;9.00;5.82;;;3.90;86.20;;;;;;6183677;23;20529;-71
2022/03/06 10:21:27;;;;;;;7.63;5.82;;;3.90;87.40;;;;;;6183528;23;20095;-72
2022/03/06 10:23:58;;;;;;;8.48;5.53;;;4.00;86.80;;;;;;6182998;23;20024;-71
2022/03/06 10:26:27;;;;;;;8.82;6.40;;;4.00;87.60;;;;;;6210821;23;20021;-71
2022/03/06 10:28:58;;;;;;;8.68;6.10;;;4.00;86.40;;;;;;6209419;23;20013;-71
2022/03/06 10:31:29;;;;;;;8.40;6.22;;;4.10;87.00;;;;;;6210330;23;20020;-72
2022/03/06 10:33:58;;;;;;;7.38;5.85;;;4.20;85.70;;;;;;6208637;23;20013;-73
2022/03/06 10:36:31;;;;;;;8.20;6.25;;;4.20;83.50;;;;;;6211504;23;20027;-72
2022/03/06 10:38:56;;;;;;;8.52;6.45;;;4.30;77.80;;;;;;6209974;23;20096;-70
2022/03/06 10:41:22;;;;;;;10.10;7.05;;;4.30;77.50;;;;;;6182266;23;20625;-72
2022/03/06 10:43:49;;;;;;;9.32;6.68;;;4.30;77.80;;;;;;6209726;23;20054;-72
2022/03/06 10:46:20;;;;;;;7.40;6.55;;;4.30;76.60;;;;;;6211370;23;20020;-71
2022/03/06 10:49:12;;;;;;;9.73;6.32;;;4.30;75.30;;;;;;6209810;23;20044;-73
2022/03/06 10:51:47;;;;;;;8.10;6.15;;;4.30;76.00;;;;;;6184511;23;20096;-74
2022/03/06 10:54:14;;;;;;;9.27;6.72;;;4.30;78.40;;;;;;6183841;23;20040;-74
2022/03/06 10:56:44;;;;;;;;;;;4.40;78.90;;;;;;6185406;23;20024;-74
2022/03/06 10:59:10;;;;;;;7.60;6.55;;;4.40;82.60;;;;;;6185612;23;20363;-75
2022/03/06 11:01:38;;;;;;;9.38;6.68;;;4.50;82.80;;;;;;6185370;23;20027;-73
2022/03/06 11:04:06;;;;;;;8.27;6.30;;;4.50;75.00;;;;;;6183739;23;20200;-74
2022/03/06 11:06:41;;;;;;;9.50;6.85;;;4.60;73.80;;;;;;6186241;23;20021;-74
2022/03/06 11:09:11;;;;;;;9.18;7.20;;;4.60;71.30;;;;;;6210950;23;20558;-74
2022/03/06 11:11:40;;;;;;;10.68;6.63;;;4.60;71.10;;;;;;6212892;23;20016;-74
2022/03/06 11:14:07;;;;;;;8.20;5.72;;;4.60;71.00;;;;;;6184658;23;20019;-75
2022/03/06 11:16:33;;;;;;;9.27;5.72;;;4.70;69.70;;;;;;6184892;23;20440;-75
2022/03/06 11:18:59;;;;;;;8.10;5.30;;;4.70;71.10;;;;;;6184519;23;20020;-79
2022/03/06 11:21:27;;;;;;;7.10;5.10;;;4.70;71.60;;;;;;6185701;23;20389;-76
2022/03/06 11:23:54;;;;;;;;;;;4.70;71.60;;;;;;6185971;23;20016;-75
2022/03/06 11:26:39;;;;;;;6.05;3.75;;;4.80;67.80;;;;;;6185879;23;19947;-74
2022/03/06 11:29:39;;;;;;;6.88;3.97;;;4.80;67.90;;;;;;6184714;23;20021;-76
2022/03/06 11:32:07;;;;;;;6.28;3.63;;;4.80;66.60;;;;;;6182789;23;20021;-77
2022/03/06 11:34:40;;;;;;;5.10;3.70;;;4.90;68.10;;;;;;6185505;23;20017;-75
2022/03/06 11:37:15;;;;;;;5.75;3.65;;;5.00;68.30;;;;;;6211313;23;20070;-75
2022/03/06 11:39:41;;;;;;;5.55;3.50;;;5.00;67.80;;;;;;6186163;23;20017;-76
2022/03/06 11:42:08;;;;;;;7.32;4.50;;;5.00;67.80;;;;;;6184653;23;20078;-74
2022/03/06 11:44:37;;;;;;;7.18;3.80;;;5.10;68.50;;;;;;6210969;23;20441;-74
2022/03/06 11:47:21;;;;;;;6.40;4.18;;;5.10;68.00;;;;;;6210649;23;20189;-75
2022/03/06 11:50:00;;;;;;;6.47;3.65;;;5.20;67.00;;;;;;6184420;23;20330;-75
2022/03/06 11:52:31;;;;;;;4.90;3.50;;;5.20;66.50;;;;;;6210377;23;20020;-72
2022/03/06 11:54:57;;;;;;;6.97;4.10;;;5.20;65.50;;;;;;6183337;23;20453;-73
2022/03/06 11:57:41;;;;;;;6.00;3.88;;;5.20;66.00;;;;;;6185158;23;20021;-72
2022/03/06 12:00:19;;;;;;;8.35;4.15;;;5.30;65.00;;;;;;6183109;23;20023;-72
2022/03/06 12:02:53;;;;;;;5.32;3.88;;;5.40;66.30;;;;;;6211300;23;20009;-76
2022/03/06 12:05:43;;;;;;;5.78;3.90;;;5.40;65.20;;;;;;6184146;23;20028;-75
2022/03/06 12:08:12;;;;;;;5.53;3.88;;;5.40;63.60;;;;;;6211165;23;20027;-76
2022/03/06 12:10:42;;;;;;;6.95;4.15;;;5.40;63.50;;;;;;6185766;23;20152;-73
2022/03/06 12:13:22;;;;;;;5.63;4.10;;;5.40;63.80;;;;;;6183288;23;20024;-74
2022/03/06 12:16:08;;;;;;;5.95;3.97;;;5.40;62.60;;;;;;6211108;23;20024;-75
2022/03/06 12:18:34;;;;;;;6.35;3.90;;;5.40;62.90;;;;;;6185663;23;20012;-72
2022/03/06 12:21:00;;;;;;;5.55;4.10;;;5.50;63.60;;;;;;6183215;23;20024;-74
2022/03/06 12:23:31;;;;;;;6.57;3.90;;;5.50;64.00;;;;;;6184656;23;20107;-71
2022/03/06 12:25:59;;;;;;;7.65;4.13;;;5.60;64.40;;;;;;6211210;23;20522;-75
2022/03/06 12:28:31;;;;;;;6.68;4.15;;;5.60;64.20;;;;;;6211472;23;20013;-74
2022/03/06 12:30:57;;;;;;;6.25;3.75;;;5.70;63.80;;;;;;6183799;23;20345;-75
2022/03/06 12:33:51;;;;;;;6.90;4.10;;;5.70;62.50;;;;;;6183918;23;20017;-76
2022/03/06 12:36:21;;;;;;;5.72;4.57;;;5.70;62.40;;;;;;6205506;23;20024;-73
2022/03/06 12:38:51;;;;;;;4.85;3.95;;;5.70;62.30;;;;;;6184263;23;20025;-73
2022/03/06 12:41:18;;;;;;;6.15;4.00;;;5.70;62.60;;;;;;6183465;23;20012;-72
2022/03/06 12:43:46;;;;;;;6.15;4.20;;;5.80;62.10;;;;;;6211037;23;20514;-73
2022/03/06 12:46:13;;;;;;;7.28;4.40;;;5.80;63.10;;;;;;6184976;23;20013;-72